createdAt,value
2017-11-27T00:07:35.252Z,3.7
2017-11-27T00:17:48.935Z,3.2
2017-11-27T00:28:02.883Z,3.1
2017-11-27T00:38:17.709Z,3.4
2017-11-27T00:48:32.236Z,3.5
2017-11-27T00:58:46.971Z,3.6
2017-11-27T01:09:01.576Z,3.7
2017-11-27T01:19:14.922Z,3.7
2017-11-27T01:29:29.892Z,4
2017-11-27T01:39:44.359Z,3.9
2017-11-27T01:49:59.274Z,4
2017-11-27T02:00:13.939Z,3.9
2017-11-27T02:10:27.314Z,3.9
2017-11-27T02:20:41.074Z,4
2017-11-27T02:30:55.844Z,3.9
2017-11-27T02:41:11.034Z,4
2017-11-27T02:51:25.430Z,3.9
2017-11-27T03:01:40.160Z,4
2017-11-27T03:11:54.745Z,4.3
2017-11-27T03:22:09.025Z,4.4
2017-11-27T03:32:23.963Z,4.3
2017-11-27T03:42:38.800Z,4.5
2017-11-27T03:52:53.893Z,4.6
2017-11-27T04:03:08.572Z,4.6
2017-11-27T04:13:22.322Z,4.6
2017-11-27T04:23:37.323Z,4.5
2017-11-27T04:33:51.099Z,4.6
2017-11-27T04:44:04.405Z,4.6
2017-11-27T04:54:17.761Z,4.5
2017-11-27T05:04:31.699Z,4.6
2017-11-27T05:14:45.987Z,4.6
2017-11-27T05:25:00.235Z,4.5
2017-11-27T05:35:14.492Z,4.4
2017-11-27T05:45:27.799Z,4.1
2017-11-27T05:55:42.734Z,3.9
2017-11-27T06:05:56.132Z,4.4
2017-11-27T06:16:10.188Z,4.4
2017-11-27T06:26:24.015Z,4.4
2017-11-27T06:36:38.971Z,4.5
2017-11-27T06:46:52.501Z,4.6
2017-11-27T06:57:06.289Z,4.8
2017-11-27T07:07:20.724Z,4.9
2017-11-27T07:17:34.829Z,4.8
2017-11-27T07:27:48.981Z,4.9
2017-11-27T07:38:02.448Z,4.9
2017-11-27T07:48:16.200Z,4.9
2017-11-27T07:58:30.487Z,4.9
2017-11-27T08:08:43.745Z,4.9
2017-11-27T08:18:57.632Z,4.9
2017-11-27T08:29:11.353Z,4.9
2017-11-27T08:39:25.084Z,5.1
2017-11-27T08:49:39.304Z,5.1
2017-11-27T08:59:52.785Z,5.2
2017-11-27T09:10:07.989Z,5.2
2017-11-27T09:20:22.055Z,5.2
2017-11-27T09:30:35.935Z,5.3
2017-11-27T09:40:49.223Z,5.3
2017-11-27T09:51:03.692Z,5.6
2017-11-27T10:01:17.033Z,5.6
2017-11-27T10:11:31.639Z,5.7
2017-11-27T10:21:46.170Z,5.7
2017-11-27T10:31:59.519Z,5.9
2017-11-27T10:42:13.610Z,5.9
2017-11-27T10:52:28.755Z,5.9
2017-11-27T11:02:42.363Z,6.2
2017-11-27T11:12:56.717Z,6.3
2017-11-27T11:23:10.170Z,6.3
2017-11-27T11:33:24.285Z,6.4
2017-11-27T11:53:53.965Z,6.6
2017-11-27T12:04:09.200Z,6.9
2017-11-27T12:14:22.496Z,7
2017-11-27T12:24:36.118Z,6.9
2017-11-27T12:34:49.955Z,7
2017-11-27T12:45:03.593Z,7
2017-11-27T12:55:17.769Z,7.1
2017-11-27T13:05:32.308Z,7.2
2017-11-27T13:15:46.343Z,7.3
2017-11-27T13:26:00.729Z,7.3
2017-11-27T13:36:14.518Z,7.5
2017-11-27T13:46:28.845Z,7.4
2017-11-27T13:56:42.763Z,7.6
2017-11-27T14:06:56.624Z,7.6
2017-11-27T14:17:10.401Z,7.6
2017-11-27T14:27:24.161Z,7.6
2017-11-27T14:37:39.264Z,7.6
2017-11-27T14:47:53.583Z,7.6
2017-11-27T14:58:07.340Z,7.7
2017-11-27T15:08:20.746Z,7.7
2017-11-27T15:18:34.879Z,7.7
2017-11-27T15:28:49.245Z,7.6
2017-11-27T15:39:03.411Z,7.6
2017-11-27T15:49:18.050Z,7.6
2017-11-27T15:59:32.094Z,7.5
2017-11-27T16:09:46.481Z,7.6
2017-11-27T16:20:00.812Z,7.6
2017-11-27T16:30:15.302Z,7.7
2017-11-27T16:40:29.855Z,7.6
2017-11-27T16:50:43.579Z,7.6
2017-11-27T17:00:58.177Z,7.6
2017-11-27T17:11:11.595Z,7.6
2017-11-27T17:21:25.635Z,7.7
2017-11-27T17:31:39.973Z,7.7
2017-11-27T17:41:54.488Z,7.7
2017-11-27T17:52:08.493Z,7.7
2017-11-27T18:02:22.341Z,7.7
2017-11-27T18:12:36.298Z,7.7
2017-11-27T18:22:49.546Z,7.9
2017-11-27T18:33:04.190Z,7.8
2017-11-27T18:43:18.456Z,7.8
2017-11-27T18:53:33.323Z,7.6
2017-11-27T19:03:47.908Z,7.5
2017-11-27T19:14:01.202Z,7.6
2017-11-27T19:24:15.966Z,7.6
